Time;durP1;ratioP1;P1;durP2;ratioP2;P2;SDS_P1;SDS_P2;PMS_P1;PMS_P2;Temp;Humidity;BMP_temperature;BMP_pressure;BME280_temperature;BME280_humidity;BME280_pressure;Samples;Min_cycle;Max_cycle;Signal;HPM_P1;HPM_P2
2024/04/19 00:01:48;;;;;;;0.75;0.50;;;7.30;81.50;;;;;;4840543;29;20045;-72
2024/04/19 00:04:13;;;;;;;0.80;0.52;;;7.30;81.60;;;;;;4839701;29;20046;-73
2024/04/19 00:06:39;;;;;;;0.50;0.50;;;7.30;81.70;;;;;;4839441;29;20058;-73
2024/04/19 00:09:04;;;;;;;1.20;0.60;;;7.30;81.80;;;;;;4840024;29;20056;-73
2024/04/19 00:11:30;;;;;;;0.60;0.50;;;7.30;81.80;;;;;;4823562;29;20050;-73
2024/04/19 00:13:56;;;;;;;1.65;0.50;;;7.30;81.80;;;;;;4839641;29;20054;-72
2024/04/19 00:16:22;;;;;;;0.40;0.40;;;7.30;81.90;;;;;;4822944;29;20038;-73
2024/04/19 00:18:54;;;;;;;0.70;0.57;;;7.30;82.00;;;;;;4840287;29;20039;-72
2024/04/19 00:21:21;;;;;;;0.90;0.80;;;7.30;82.00;;;;;;4801547;29;20483;-72
2024/04/19 00:23:46;;;;;;;0.68;0.50;;;7.30;82.10;;;;;;4772071;29;20043;-73
2024/04/19 00:26:12;;;;;;;0.93;0.65;;;7.30;82.20;;;;;;4804279;29;20439;-73
2024/04/19 00:28:38;;;;;;;0.70;0.68;;;7.30;82.20;;;;;;4804597;29;20046;-73
2024/04/19 00:31:07;;;;;;;0.70;0.60;;;7.30;82.30;;;;;;4789206;29;20112;-73
2024/04/19 00:33:33;;;;;;;0.50;0.50;;;7.30;82.40;;;;;;4787528;29;20099;-73
2024/04/19 00:35:58;;;;;;;1.00;0.57;;;7.20;83.10;;;;;;4788667;29;20054;-73
2024/04/19 00:38:24;;;;;;;1.20;0.80;;;7.30;82.60;;;;;;4804665;29;20125;-73
2024/04/19 00:40:50;;;;;;;0.70;0.60;;;7.30;82.70;;;;;;4804310;29;20430;-74
2024/04/19 00:43:16;;;;;;;0.70;0.60;;;7.30;82.80;;;;;;4804249;29;20506;-73
2024/04/19 00:45:42;;;;;;;0.40;0.40;;;7.20;82.80;;;;;;4803962;29;20059;-73
2024/04/19 00:48:18;;;;;;;1.77;0.80;;;7.20;82.90;;;;;;4804161;29;20043;-73
2024/04/19 00:50:45;;;;;;;0.73;0.50;;;7.30;83.00;;;;;;4803894;29;20145;-73
2024/04/19 00:53:16;;;;;;;0.82;0.75;;;7.20;83.00;;;;;;4823110;29;20078;-74
2024/04/19 00:55:41;;;;;;;1.52;0.80;;;7.20;83.10;;;;;;4842280;29;20116;-75
2024/04/19 00:58:07;;;;;;;0.88;0.50;;;7.20;83.20;;;;;;4825184;29;20141;-73
2024/04/19 01:00:34;;;;;;;0.70;0.60;;;7.20;83.20;;;;;;4825810;29;20069;-74
2024/04/19 01:02:59;;;;;;;0.63;0.50;;;7.20;83.30;;;;;;4825935;29;20122;-73
2024/04/19 01:05:25;;;;;;;0.55;0.55;;;7.30;83.40;;;;;;4842298;29;20038;-74
2024/04/19 01:07:51;;;;;;;0.75;0.50;;;7.30;83.50;;;;;;4825983;29;20042;-74
2024/04/19 01:10:18;;;;;;;1.27;0.70;;;7.30;83.50;;;;;;4825828;29;20060;-73
2024/04/19 01:12:44;;;;;;;0.77;0.57;;;7.30;83.60;;;;;;4825760;29;20044;-74
2024/04/19 01:15:18;;;;;;;0.90;0.57;;;7.30;83.60;;;;;;4842330;29;20047;-73
2024/04/19 01:17:44;;;;;;;0.40;0.40;;;7.30;83.80;;;;;;4825576;29;20038;-74
2024/04/19 01:20:10;;;;;;;0.35;0.35;;;7.30;83.70;;;;;;4842840;29;20052;-73
2024/04/19 01:22:36;;;;;;;0.32;0.32;;;7.40;83.80;;;;;;4842129;29;20038;-74
2024/04/19 01:25:04;;;;;;;0.82;0.43;;;7.30;83.90;;;;;;4825259;29;20046;-74
2024/04/19 01:27:30;;;;;;;1.30;0.60;;;7.40;84.60;;;;;;4841725;29;20058;-74
2024/04/19 01:29:59;;;;;;;1.73;0.52;;;7.40;84.00;;;;;;4842173;29;20049;-74
2024/04/19 01:32:25;;;;;;;0.43;0.43;;;7.40;84.10;;;;;;4810881;29;20500;-73
2024/04/19 01:34:50;;;;;;;0.80;0.47;;;7.40;84.10;;;;;;4826018;29;20042;-73
2024/04/19 01:37:17;;;;;;;0.47;0.40;;;7.40;84.10;;;;;;4840715;29;20141;-74
2024/04/19 01:39:43;;;;;;;0.60;0.60;;;7.40;84.20;;;;;;4841739;29;20045;-74
2024/04/19 01:42:10;;;;;;;0.40;0.38;;;7.40;84.30;;;;;;4825526;29;20075;-74
2024/04/19 01:44:36;;;;;;;0.40;0.40;;;7.40;84.40;;;;;;4825521;29;20053;-74
2024/04/19 01:47:01;;;;;;;0.50;0.50;;;7.40;84.40;;;;;;4841557;29;20566;-74
2024/04/19 01:49:27;;;;;;;0.40;0.40;;;7.40;84.40;;;;;;4825775;29;20457;-75
2024/04/19 01:51:53;;;;;;;0.55;0.43;;;7.50;84.50;;;;;;4825234;29;20477;-74
2024/04/19 01:54:19;;;;;;;0.30;0.30;;;7.50;84.60;;;;;;4842222;29;20100;-74
2024/04/19 01:56:46;;;;;;;0.47;0.47;;;7.50;84.70;;;;;;4842571;29;20068;-74
2024/04/19 01:59:15;;;;;;;0.50;0.40;;;7.50;84.70;;;;;;4824679;29;20046;-74
2024/04/19 02:01:40;;;;;;;1.30;0.52;;;7.50;84.80;;;;;;4810230;29;20214;-74
2024/04/19 02:04:06;;;;;;;0.45;0.40;;;7.50;84.80;;;;;;4841511;29;20549;-74
2024/04/19 02:06:32;;;;;;;0.88;0.50;;;7.50;84.90;;;;;;4824958;29;20077;-74
2024/04/19 02:08:57;;;;;;;0.50;0.50;;;7.50;84.90;;;;;;4825515;29;20048;-74
2024/04/19 02:11:23;;;;;;;0.63;0.50;;;7.50;85.00;;;;;;4825140;29;20202;-74
2024/04/19 02:13:49;;;;;;;1.10;0.70;;;7.50;85.00;;;;;;4810623;29;20034;-74
2024/04/19 02:16:14;;;;;;;0.90;0.60;;;7.50;85.10;;;;;;4826988;29;20045;-74
2024/04/19 02:18:40;;;;;;;0.40;0.40;;;7.50;85.10;;;;;;4827046;29;20101;-74
2024/04/19 02:21:06;;;;;;;0.55;0.55;;;7.50;85.10;;;;;;4844010;29;20042;-74
2024/04/19 02:23:42;;;;;;;0.52;0.52;;;7.60;85.30;;;;;;4796011;29;20046;-74
2024/04/19 02:26:08;;;;;;;0.73;0.50;;;7.50;85.30;;;;;;4842439;29;20497;-73
2024/04/19 02:31:16;;;;;;;0.57;0.40;;;7.50;85.40;;;;;;4813624;29;20081;-74
2024/04/19 02:33:44;;;;;;;0.95;0.50;;;7.50;85.40;;;;;;4841869;29;20099;-74
2024/04/19 02:36:10;;;;;;;0.90;0.60;;;7.50;85.50;;;;;;4841311;29;20129;-74
2024/04/19 02:38:37;;;;;;;1.38;0.50;;;7.50;85.60;;;;;;4841022;29;20138;-74
2024/04/19 02:41:03;;;;;;;0.40;0.40;;;7.60;85.70;;;;;;4794428;29;20564;-74
2024/04/19 02:43:29;;;;;;;0.43;0.43;;;7.50;85.70;;;;;;4840735;29;20057;-74
2024/04/19 02:45:55;;;;;;;0.40;0.40;;;7.50;85.70;;;;;;4840850;29;20396;-74
2024/04/19 02:48:21;;;;;;;0.75;0.50;;;7.60;85.80;;;;;;4840875;29;20073;-74
2024/04/19 02:50:49;;;;;;;0.45;0.45;;;7.50;85.80;;;;;;4842141;29;20052;-74
2024/04/19 02:53:15;;;;;;;0.40;0.40;;;7.60;85.90;;;;;;4841458;29;20041;-74
2024/04/19 02:55:41;;;;;;;0.75;0.50;;;7.60;86.00;;;;;;4825013;29;20118;-73
2024/04/19 02:58:07;;;;;;;0.43;0.43;;;7.60;86.00;;;;;;4825016;29;20034;-73
2024/04/19 03:00:34;;;;;;;1.27;0.40;;;7.60;86.10;;;;;;4841328;29;20042;-74
2024/04/19 03:03:00;;;;;;;0.95;0.45;;;7.60;86.10;;;;;;4840890;29;20080;-73
2024/04/19 03:05:26;;;;;;;0.38;0.30;;;7.60;86.10;;;;;;4824559;29;20077;-74
2024/04/19 03:07:51;;;;;;;0.55;0.50;;;7.60;86.20;;;;;;4840967;29;20041;-73
2024/04/19 03:10:19;;;;;;;0.43;0.40;;;7.60;86.20;;;;;;4841383;29;20038;-74
2024/04/19 03:12:48;;;;;;;0.50;0.50;;;7.60;86.20;;;;;;4824229;29;20102;-74
2024/04/19 03:15:14;;;;;;;0.30;0.30;;;7.60;86.30;;;;;;4824051;29;20074;-73
2024/04/19 03:17:39;;;;;;;0.40;0.40;;;7.60;86.40;;;;;;4824072;29;20137;-73
2024/04/19 03:20:06;;;;;;;0.57;0.50;;;7.60;86.40;;;;;;4824389;29;20128;-74
2024/04/19 03:22:41;;;;;;;0.60;0.60;;;7.60;86.50;;;;;;4823803;29;20042;-75
2024/04/19 03:25:07;;;;;;;0.52;0.43;;;7.60;86.50;;;;;;4839546;29;20038;-74
2024/04/19 03:27:33;;;;;;;0.50;0.50;;;7.60;86.50;;;;;;4840288;29;20190;-73
2024/04/19 03:29:59;;;;;;;0.38;0.38;;;7.70;86.70;;;;;;4840569;29;20038;-73
2024/04/19 03:32:25;;;;;;;0.50;0.50;;;7.60;86.70;;;;;;4823056;29;20046;-74
2024/04/19 03:34:55;;;;;;;1.48;0.57;;;7.60;86.70;;;;;;4839433;29;20577;-73
2024/04/19 03:37:25;;;;;;;0.50;0.50;;;7.60;86.80;;;;;;4825716;29;20121;-73
2024/04/19 03:39:50;;;;;;;0.57;0.55;;;7.60;86.80;;;;;;4840623;29;20069;-73
2024/04/19 03:42:20;;;;;;;0.40;0.40;;;7.70;86.90;;;;;;4824566;29;20073;-74
2024/04/19 03:47:23;;;;;;;1.50;0.57;;;7.70;86.90;;;;;;4825587;29;20044;-75
2024/04/19 03:49:49;;;;;;;0.63;0.50;;;7.60;86.90;;;;;;4840479;29;20037;-74
2024/04/19 03:52:15;;;;;;;0.70;0.60;;;7.60;87.00;;;;;;4840459;29;20090;-75
2024/04/19 03:54:41;;;;;;;1.00;0.80;;;7.60;87.10;;;;;;4840291;29;20065;-74
2024/04/19 03:57:07;;;;;;;1.67;0.93;;;7.60;87.10;;;;;;4841119;29;20358;-74
2024/04/19 03:59:33;;;;;;;1.10;1.00;;;7.60;87.20;;;;;;4842075;29;20071;-73
2024/04/19 04:01:58;;;;;;;0.65;0.55;;;7.60;87.30;;;;;;4843792;29;20038;-73
2024/04/19 04:04:24;;;;;;;1.50;0.77;;;7.60;87.30;;;;;;4827433;29;20050;-73
2024/04/19 04:06:50;;;;;;;0.52;0.50;;;7.60;87.30;;;;;;4844320;29;20081;-74
2024/04/19 04:09:16;;;;;;;0.52;0.52;;;7.60;87.30;;;;;;4843796;29;20076;-73
2024/04/19 04:11:42;;;;;;;0.60;0.60;;;7.60;87.40;;;;;;4844363;29;20042;-73
2024/04/19 04:14:08;;;;;;;0.75;0.70;;;7.60;87.40;;;;;;4844067;29;20046;-74
2024/04/19 04:16:34;;;;;;;0.88;0.80;;;7.60;87.40;;;;;;4843340;29;20409;-73
2024/04/19 04:19:03;;;;;;;0.63;0.63;;;7.60;87.50;;;;;;4843400;29;20512;-74
2024/04/19 04:21:29;;;;;;;1.88;0.60;;;7.60;87.50;;;;;;4826664;29;20050;-74
2024/04/19 04:23:55;;;;;;;0.60;0.60;;;7.60;87.50;;;;;;4826903;29;20101;-74
2024/04/19 04:26:20;;;;;;;0.57;0.57;;;7.70;87.60;;;;;;4843224;29;20570;-73
2024/04/19 04:28:46;;;;;;;0.60;0.60;;;7.60;87.60;;;;;;4844554;29;20049;-73
2024/04/19 04:31:12;;;;;;;0.90;0.70;;;7.70;87.70;;;;;;4826887;29;20047;-73
2024/04/19 04:33:37;;;;;;;0.73;0.60;;;7.70;87.70;;;;;;4845903;29;20038;-74
2024/04/19 04:36:03;;;;;;;0.90;0.60;;;7.70;87.70;;;;;;4829097;29;20070;-73
2024/04/19 04:38:29;;;;;;;0.40;0.40;;;7.70;87.70;;;;;;4831018;29;20075;-74
2024/04/19 04:40:55;;;;;;;0.50;0.50;;;7.70;87.80;;;;;;4828484;29;20038;-74
2024/04/19 04:43:21;;;;;;;0.70;0.60;;;7.70;87.80;;;;;;4843410;29;20408;-74
2024/04/19 04:45:47;;;;;;;0.43;0.43;;;7.80;87.80;;;;;;4825592;29;20043;-74
2024/04/19 04:48:16;;;;;;;0.40;0.40;;;7.80;87.90;;;;;;4829597;29;20045;-74
2024/04/19 04:50:42;;;;;;;0.40;0.40;;;7.80;87.90;;;;;;4843931;29;20045;-75
2024/04/19 04:53:08;;;;;;;0.43;0.43;;;7.80;87.90;;;;;;4826022;29;20046;-75
2024/04/19 04:55:34;;;;;;;0.50;0.50;;;7.80;87.90;;;;;;4826315;29;20489;-75
2024/04/19 04:58:01;;;;;;;0.50;0.50;;;7.80;87.90;;;;;;4830630;29;20050;-74
2024/04/19 05:00:28;;;;;;;0.40;0.40;;;7.90;88.10;;;;;;4845978;29;20065;-74
2024/04/19 05:02:57;;;;;;;0.60;0.40;;;7.90;88.10;;;;;;4831127;29;20182;-74
2024/04/19 05:05:24;;;;;;;0.30;0.30;;;7.90;88.10;;;;;;4828982;29;20089;-75
2024/04/19 05:07:50;;;;;;;0.28;0.28;;;8.00;88.10;;;;;;4831358;29;20057;-74
2024/04/19 05:10:16;;;;;;;0.30;0.30;;;8.00;88.10;;;;;;4847250;29;20042;-74
2024/04/19 05:12:42;;;;;;;0.30;0.30;;;8.00;88.10;;;;;;4846576;29;20049;-74
2024/04/19 05:15:08;;;;;;;0.30;0.30;;;8.00;88.10;;;;;;4847487;29;20175;-74
2024/04/19 05:17:35;;;;;;;0.40;0.40;;;8.10;88.10;;;;;;4827775;29;20066;-74
2024/04/19 05:20:02;;;;;;;0.20;0.20;;;8.10;88.10;;;;;;4829129;29;20082;-73
2024/04/19 05:22:28;;;;;;;0.47;0.47;;;8.10;88.20;;;;;;4842375;29;20046;-74
2024/04/19 05:24:54;;;;;;;0.40;0.40;;;8.20;88.20;;;;;;4826063;29;20042;-74
2024/04/19 05:27:20;;;;;;;0.30;0.30;;;8.20;88.20;;;;;;4842568;29;20037;-74
2024/04/19 05:29:59;;;;;;;0.30;0.30;;;8.20;88.20;;;;;;4842250;29;20086;-74
2024/04/19 05:32:25;;;;;;;0.47;0.40;;;8.30;88.20;;;;;;4842076;29;20118;-74
2024/04/19 05:34:51;;;;;;;0.30;0.30;;;8.30;88.20;;;;;;4841926;29;20072;-75
2024/04/19 05:37:16;;;;;;;0.22;0.22;;;8.30;88.20;;;;;;4825827;29;20167;-73
2024/04/19 05:39:42;;;;;;;0.30;0.30;;;8.40;88.30;;;;;;4842987;29;20182;-73
2024/04/19 05:42:25;;;;;;;0.30;0.30;;;8.40;88.20;;;;;;4842592;29;20121;-73
2024/04/19 05:44:50;;;;;;;0.30;0.30;;;8.40;88.30;;;;;;4844591;29;20042;-73
2024/04/19 05:47:16;;;;;;;0.47;0.47;;;8.50;88.30;;;;;;4826895;29;20077;-73
2024/04/19 05:49:43;;;;;;;0.20;0.20;;;8.50;88.30;;;;;;4842340;29;20058;-73
2024/04/19 05:52:09;;;;;;;0.40;0.40;;;8.60;88.40;;;;;;4826250;29;20050;-74
2024/04/19 05:54:35;;;;;;;0.28;0.28;;;8.60;88.30;;;;;;4843192;29;20129;-74
2024/04/19 05:57:00;;;;;;;0.57;0.40;;;8.60;88.30;;;;;;4810680;29;20149;-74
2024/04/19 05:59:26;;;;;;;0.32;0.32;;;8.70;88.30;;;;;;4826742;29;20046;-74
2024/04/19 06:01:52;;;;;;;0.30;0.30;;;8.80;88.40;;;;;;4825766;29;20131;-73
2024/04/19 06:04:17;;;;;;;0.30;0.30;;;8.80;88.30;;;;;;4841728;29;20069;-74
2024/04/19 06:06:45;;;;;;;0.28;0.28;;;8.80;88.30;;;;;;4841768;29;20046;-74
2024/04/19 06:09:10;;;;;;;0.40;0.40;;;8.90;88.40;;;;;;4841678;29;20052;-76
2024/04/19 06:11:36;;;;;;;0.40;0.40;;;8.90;88.40;;;;;;4841957;29;20050;-75
2024/04/19 06:14:02;;;;;;;0.75;0.50;;;8.90;88.40;;;;;;4841541;29;20515;-74
2024/04/19 06:16:27;;;;;;;0.45;0.45;;;9.00;88.40;;;;;;4841711;29;20170;-74
2024/04/19 06:18:53;;;;;;;0.60;0.60;;;9.10;88.40;;;;;;4841888;29;20037;-74
2024/04/19 06:21:19;;;;;;;0.50;0.50;;;9.10;88.40;;;;;;4824606;29;20045;-74
2024/04/19 06:23:44;;;;;;;0.30;0.30;;;9.10;88.40;;;;;;4809217;29;20050;-73
2024/04/19 06:26:10;;;;;;;0.40;0.40;;;9.20;88.50;;;;;;4825515;29;20038;-74
2024/04/19 06:28:37;;;;;;;0.50;0.50;;;9.20;88.50;;;;;;4825006;29;20082;-75
2024/04/19 06:31:09;;;;;;;0.35;0.35;;;9.20;88.50;;;;;;4825952;29;20408;-75
2024/04/19 06:33:38;;;;;;;0.63;0.60;;;9.40;88.60;;;;;;4811463;29;20129;-75
2024/04/19 06:36:08;;;;;;;0.57;0.40;;;9.30;88.50;;;;;;4796129;29;20409;-75
2024/04/19 06:38:35;;;;;;;0.50;0.40;;;9.40;88.50;;;;;;4810833;29;20054;-74
2024/04/19 06:41:01;;;;;;;0.50;0.40;;;9.40;88.50;;;;;;4826142;29;20056;-74
2024/04/19 06:43:27;;;;;;;0.30;0.30;;;9.30;88.60;;;;;;4811019;29;20077;-75
2024/04/19 06:45:56;;;;;;;0.52;0.40;;;9.40;88.70;;;;;;4826195;29;20078;-75
2024/04/19 06:48:29;;;;;;;0.40;0.40;;;9.40;89.30;;;;;;4796491;29;20041;-75
2024/04/19 06:50:57;;;;;;;0.30;0.30;;;9.50;88.90;;;;;;4826254;29;20132;-75
2024/04/19 06:53:22;;;;;;;0.30;0.30;;;9.50;88.80;;;;;;4810433;29;20076;-76
2024/04/19 06:55:48;;;;;;;1.63;0.40;;;9.60;88.90;;;;;;4841154;29;20058;-75
2024/04/19 06:58:14;;;;;;;0.85;0.50;;;9.70;88.80;;;;;;4840562;29;20500;-76
2024/04/19 07:00:40;;;;;;;1.13;0.47;;;9.70;88.70;;;;;;4841160;29;20050;-75
2024/04/19 07:03:06;;;;;;;0.98;0.50;;;9.70;88.60;;;;;;4824339;29;20556;-75
2024/04/19 07:05:34;;;;;;;0.73;0.40;;;9.70;88.60;;;;;;4840577;29;20062;-76
2024/04/19 07:08:00;;;;;;;1.48;0.60;;;9.80;88.70;;;;;;4824211;29;20504;-75
2024/04/19 07:10:26;;;;;;;2.03;0.60;;;9.80;88.80;;;;;;4792642;29;20042;-75
2024/04/19 07:12:52;;;;;;;2.58;0.70;;;9.90;88.80;;;;;;4809526;29;20049;-76
2024/04/19 07:15:19;;;;;;;1.73;0.60;;;9.90;88.80;;;;;;4824080;29;20034;-75
2024/04/19 07:17:48;;;;;;;0.90;0.40;;;10.00;88.90;;;;;;4824531;29;20034;-76
2024/04/19 07:20:14;;;;;;;0.57;0.43;;;10.10;88.70;;;;;;4793011;29;20031;-75
2024/04/19 07:22:39;;;;;;;0.43;0.40;;;10.20;88.50;;;;;;4824244;29;20065;-74
2024/04/19 07:25:06;;;;;;;0.82;0.50;;;10.30;88.50;;;;;;4809497;29;20038;-74
2024/04/19 07:27:31;;;;;;;0.90;0.40;;;10.20;88.40;;;;;;4808210;29;20049;-74
2024/04/19 07:29:57;;;;;;;2.85;0.52;;;10.20;88.40;;;;;;4840565;29;20496;-74
2024/04/19 07:32:23;;;;;;;2.35;0.77;;;10.20;88.50;;;;;;4794365;29;20145;-74
2024/04/19 07:34:49;;;;;;;1.95;0.55;;;10.20;88.60;;;;;;4811017;29;20074;-74
2024/04/19 07:37:16;;;;;;;1.02;0.40;;;10.30;88.80;;;;;;4810038;29;20042;-74
2024/04/19 07:39:41;;;;;;;0.38;0.38;;;10.20;88.80;;;;;;4841675;29;20075;-74
2024/04/19 07:42:07;;;;;;;0.60;0.43;;;10.30;88.80;;;;;;4809648;29;20050;-74
2024/04/19 07:44:33;;;;;;;0.30;0.30;;;10.30;88.90;;;;;;4824353;29;20570;-74
2024/04/19 07:47:00;;;;;;;0.30;0.30;;;10.10;88.90;;;;;;4825390;29;20046;-74
2024/04/19 07:49:26;;;;;;;0.52;0.50;;;10.30;89.10;;;;;;4795547;29;20477;-75
2024/04/19 07:51:53;;;;;;;1.73;0.60;;;10.20;89.10;;;;;;4808608;29;20478;-75
2024/04/19 07:54:20;;;;;;;1.95;0.80;;;10.20;89.20;;;;;;4841235;29;20041;-75
2024/04/19 07:56:47;;;;;;;1.80;0.70;;;10.10;89.20;;;;;;4824982;29;20046;-74
2024/04/19 07:59:14;;;;;;;0.82;0.77;;;10.20;89.40;;;;;;4813463;29;20038;-75
2024/04/19 08:01:39;;;;;;;1.02;0.68;;;10.10;89.50;;;;;;4826585;29;20132;-75
2024/04/19 08:04:07;;;;;;;1.65;0.52;;;10.10;89.50;;;;;;4811599;29;20074;-74
2024/04/19 08:06:33;;;;;;;1.35;0.40;;;10.10;89.60;;;;;;4828316;29;20122;-75
2024/04/19 08:08:58;;;;;;;1.17;0.60;;;10.00;89.60;;;;;;4852409;29;20038;-74
2024/04/19 08:11:24;;;;;;;0.75;0.55;;;10.00;89.80;;;;;;4852049;29;20052;-75
2024/04/19 08:13:50;;;;;;;0.30;0.30;;;10.00;89.90;;;;;;4846819;29;20045;-74
2024/04/19 08:16:16;;;;;;;1.10;0.60;;;9.90;89.80;;;;;;4848505;29;20045;-74
2024/04/19 08:18:42;;;;;;;0.57;0.40;;;10.00;89.90;;;;;;4846118;29;20050;-74
2024/04/19 08:21:08;;;;;;;0.43;0.30;;;10.00;89.90;;;;;;4825704;29;20065;-75
2024/04/19 08:23:33;;;;;;;0.40;0.40;;;10.10;89.90;;;;;;4827026;29;20396;-74
2024/04/19 08:25:59;;;;;;;0.85;0.47;;;10.10;89.80;;;;;;4842345;29;20472;-74
2024/04/19 08:28:25;;;;;;;0.75;0.32;;;10.10;89.80;;;;;;4825833;29;20097;-74
2024/04/19 08:30:53;;;;;;;0.63;0.40;;;10.10;89.80;;;;;;4826479;29;20145;-74
2024/04/19 08:33:20;;;;;;;1.00;0.32;;;10.20;89.80;;;;;;4828592;29;20136;-74
2024/04/19 08:35:55;;;;;;;0.30;0.30;;;10.10;89.70;;;;;;4818692;29;20070;-74
2024/04/19 08:38:21;;;;;;;0.85;0.43;;;10.10;89.70;;;;;;4834149;29;20123;-74
2024/04/19 08:40:55;;;;;;;0.32;0.30;;;10.10;89.70;;;;;;4842707;29;20078;-74
2024/04/19 08:43:22;;;;;;;0.40;0.35;;;10.10;89.70;;;;;;4810685;29;20069;-75
2024/04/19 08:45:48;;;;;;;0.30;0.30;;;9.90;89.60;;;;;;4803295;29;20045;-75
2024/04/19 08:48:15;;;;;;;0.93;0.35;;;10.00;89.70;;;;;;4848568;29;20088;-74
2024/04/19 08:50:43;;;;;;;0.30;0.30;;;9.90;89.90;;;;;;4827149;29;20046;-74
2024/04/19 08:53:11;;;;;;;0.70;0.20;;;9.80;90.00;;;;;;4827086;29;20319;-75
2024/04/19 08:55:38;;;;;;;0.47;0.40;;;9.70;90.00;;;;;;4827306;29;20034;-76
2024/04/19 08:58:05;;;;;;;0.93;0.20;;;9.60;90.10;;;;;;4827611;29;20038;-75
2024/04/19 09:00:30;;;;;;;0.20;0.20;;;9.60;90.20;;;;;;4812328;29;20050;-74
2024/04/19 09:02:56;;;;;;;0.30;0.10;;;9.60;90.20;;;;;;4852031;29;20069;-74
2024/04/19 09:05:22;;;;;;;0.20;0.20;;;9.70;90.20;;;;;;4826418;29;20061;-75
2024/04/19 09:07:48;;;;;;;0.10;0.10;;;9.80;90.10;;;;;;4826106;29;20551;-74
2024/04/19 09:10:13;;;;;;;0.80;0.20;;;9.90;90.10;;;;;;4844041;29;20077;-74
2024/04/19 09:12:39;;;;;;;0.55;0.20;;;10.00;90.00;;;;;;4812341;29;20045;-74
2024/04/19 09:15:06;;;;;;;0.20;0.20;;;10.10;89.90;;;;;;4832002;29;20050;-74
2024/04/19 09:17:32;;;;;;;0.40;0.28;;;10.20;89.60;;;;;;4831325;29;20086;-74
2024/04/19 09:19:58;;;;;;;1.30;0.20;;;10.40;89.20;;;;;;4815967;29;20049;-74
2024/04/19 09:22:24;;;;;;;0.20;0.20;;;10.50;89.00;;;;;;4848252;29;20041;-74
2024/04/19 09:24:53;;;;;;;0.22;0.20;;;10.50;88.80;;;;;;4818944;29;20137;-74
2024/04/19 09:27:22;;;;;;;0.98;0.30;;;10.40;88.90;;;;;;4836558;29;20532;-76
2024/04/19 09:29:49;;;;;;;0.20;0.20;;;10.40;89.00;;;;;;4858010;29;20062;-76
2024/04/19 09:32:20;;;;;;;0.47;0.30;;;10.30;89.10;;;;;;4818321;29;20054;-76
2024/04/19 09:34:46;;;;;;;0.20;0.20;;;10.20;89.40;;;;;;4814287;29;20046;-76
2024/04/19 09:37:13;;;;;;;0.32;0.30;;;10.20;89.50;;;;;;4829134;29;20075;-75
2024/04/19 09:39:39;;;;;;;0.17;0.10;;;10.20;89.70;;;;;;4845430;29;20453;-74
2024/04/19 09:42:07;;;;;;;0.30;0.20;;;10.30;89.80;;;;;;4829473;29;20058;-75
2024/04/19 09:44:33;;;;;;;0.20;0.20;;;10.40;89.80;;;;;;4827653;29;20041;-74
2024/04/19 09:47:04;;;;;;;0.20;0.20;;;10.40;89.80;;;;;;4846266;29;20489;-75
2024/04/19 09:49:31;;;;;;;0.40;0.30;;;10.50;89.50;;;;;;4831134;29;20046;-75
2024/04/19 09:51:57;;;;;;;0.20;0.20;;;10.50;89.40;;;;;;4826930;29;20514;-74
2024/04/19 09:54:31;;;;;;;0.50;0.20;;;10.60;89.20;;;;;;4810328;29;20045;-75
2024/04/19 09:57:00;;;;;;;0.35;0.22;;;10.80;89.10;;;;;;4795248;29;20049;-76
2024/04/19 09:59:29;;;;;;;0.13;0.13;;;10.80;88.80;;;;;;4842625;29;20166;-75
2024/04/19 10:01:56;;;;;;;0.15;0.15;;;10.90;88.70;;;;;;4842090;29;20137;-75
2024/04/19 10:04:24;;;;;;;0.32;0.20;;;10.90;88.60;;;;;;4825161;29;20054;-77
2024/04/19 10:06:51;;;;;;;0.45;0.20;;;11.00;88.40;;;;;;4809225;29;20046;-76
2024/04/19 10:09:18;;;;;;;0.10;0.10;;;11.00;88.60;;;;;;4810842;29;20113;-76
2024/04/19 10:11:48;;;;;;;0.20;0.20;;;11.00;88.30;;;;;;4827845;29;20053;-76
2024/04/19 10:14:15;;;;;;;0.10;0.10;;;11.00;88.10;;;;;;4819953;29;20519;-76
2024/04/19 10:16:42;;;;;;;0.35;0.20;;;11.10;88.40;;;;;;4851334;29;20086;-76
2024/04/19 10:19:10;;;;;;;0.75;0.20;;;11.10;88.30;;;;;;4843781;29;20030;-77
2024/04/19 10:21:36;;;;;;;0.20;0.20;;;11.30;88.10;;;;;;4820221;29;20064;-76
2024/04/19 10:24:17;;;;;;;0.20;0.20;;;11.30;87.90;;;;;;4821894;29;20473;-76
2024/04/19 10:26:46;;;;;;;0.10;0.10;;;11.40;87.90;;;;;;4861624;29;20054;-76
2024/04/19 10:29:14;;;;;;;0.32;0.20;;;11.40;87.70;;;;;;4843950;29;20038;-76
2024/04/19 10:31:48;;;;;;;0.30;0.20;;;11.50;87.60;;;;;;4852827;29;20069;-75
2024/04/19 10:34:16;;;;;;;0.10;0.10;;;11.40;87.60;;;;;;4846495;29;20090;-75
2024/04/19 10:36:42;;;;;;;0.70;0.25;;;11.30;87.70;;;;;;4832850;29;20042;-76
2024/04/19 10:39:08;;;;;;;0.77;0.30;;;11.20;87.90;;;;;;4859960;29;20037;-75
2024/04/19 10:41:33;;;;;;;0.15;0.15;;;11.20;88.10;;;;;;4852751;29;20054;-75
2024/04/19 10:44:00;;;;;;;0.20;0.20;;;11.10;88.20;;;;;;4852241;29;20046;-76
2024/04/19 10:46:25;;;;;;;1.05;0.30;;;11.10;88.40;;;;;;4840222;29;20497;-75
2024/04/19 10:48:52;;;;;;;0.20;0.20;;;11.10;88.40;;;;;;4857975;29;20052;-75
2024/04/19 10:51:20;;;;;;;0.30;0.20;;;11.20;88.40;;;;;;4840843;29;20061;-75
2024/04/19 10:53:47;;;;;;;0.20;0.20;;;11.30;88.20;;;;;;4835133;29;20046;-74
2024/04/19 10:56:12;;;;;;;0.20;0.20;;;11.60;87.90;;;;;;4831608;29;20058;-75
2024/04/19 10:58:39;;;;;;;0.20;0.20;;;11.70;87.20;;;;;;4847619;29;20045;-74
2024/04/19 11:01:06;;;;;;;1.13;0.38;;;11.70;86.70;;;;;;4846300;29;20608;-75
2024/04/19 11:03:32;;;;;;;0.30;0.30;;;11.80;86.60;;;;;;4832476;29;20053;-76
2024/04/19 11:05:57;;;;;;;0.68;0.25;;;11.50;85.90;;;;;;4840168;29;20730;-76
2024/04/19 11:08:24;;;;;;;0.88;0.30;;;10.90;87.00;;;;;;4841289;29;20045;-76
2024/04/19 11:10:52;;;;;;;0.20;0.20;;;10.40;88.10;;;;;;4822107;29;20046;-74
2024/04/19 11:13:19;;;;;;;0.63;0.17;;;10.20;88.90;;;;;;4854022;29;20046;-75
2024/04/19 11:15:45;;;;;;;0.80;0.30;;;9.90;89.60;;;;;;4834936;29;20476;-77
2024/04/19 11:18:11;;;;;;;0.20;0.20;;;9.70;90.00;;;;;;4826374;29;20460;-77
2024/04/19 11:20:37;;;;;;;1.02;0.30;;;9.70;90.40;;;;;;4826178;29;20079;-77
2024/04/19 11:23:04;;;;;;;0.90;0.28;;;9.60;90.10;;;;;;4826089;29;20120;-78
2024/04/19 11:25:34;;;;;;;0.25;0.20;;;9.60;90.10;;;;;;4841345;29;20885;-75
2024/04/19 11:28:00;;;;;;;0.20;0.20;;;9.60;90.00;;;;;;4824171;29;20041;-75
2024/04/19 11:30:29;;;;;;;0.43;0.30;;;9.60;90.00;;;;;;4823184;29;20110;-75
2024/04/19 11:32:59;;;;;;;0.17;0.17;;;9.70;89.90;;;;;;4830686;29;20136;-75
2024/04/19 11:35:25;;;;;;;0.35;0.20;;;9.70;89.80;;;;;;4799095;29;20054;-76
2024/04/19 11:37:50;;;;;;;0.30;0.30;;;9.80;89.70;;;;;;4796910;29;20498;-76
2024/04/19 11:40:19;;;;;;;0.47;0.30;;;9.80;89.70;;;;;;4804776;29;20070;-75
2024/04/19 11:42:46;;;;;;;0.22;0.22;;;9.90;89.60;;;;;;4791036;29;20172;-77
2024/04/19 11:45:12;;;;;;;0.47;0.25;;;9.90;89.40;;;;;;4804778;29;20494;-76
2024/04/19 11:47:38;;;;;;;0.80;0.35;;;9.80;89.20;;;;;;4811544;29;20045;-77
2024/04/19 11:50:04;;;;;;;0.30;0.28;;;9.80;89.10;;;;;;4816713;29;20058;-76
2024/04/19 11:52:30;;;;;;;0.20;0.20;;;9.70;89.00;;;;;;4814633;29;20494;-74
2024/04/19 11:54:56;;;;;;;1.08;0.50;;;9.70;89.20;;;;;;4790088;29;20051;-75
2024/04/19 11:57:22;;;;;;;0.20;0.20;;;9.60;89.10;;;;;;4789026;29;20062;-75
2024/04/19 11:59:48;;;;;;;0.50;0.22;;;9.60;89.30;;;;;;4787048;29;20043;-76
2024/04/19 12:02:13;;;;;;;0.28;0.20;;;9.30;89.40;;;;;;4802804;29;20076;-77
2024/04/19 12:04:39;;;;;;;0.88;0.30;;;9.30;89.60;;;;;;4757931;29;20059;-75
2024/04/19 12:07:05;;;;;;;0.60;0.25;;;9.40;89.70;;;;;;4802789;29;20488;-76
2024/04/19 12:09:32;;;;;;;0.82;0.45;;;9.30;89.70;;;;;;4811180;29;20045;-77
2024/04/19 12:12:00;;;;;;;1.40;0.32;;;9.40;89.60;;;;;;4816797;29;20041;-78
2024/04/19 12:14:30;;;;;;;1.42;0.38;;;9.50;89.60;;;;;;4810641;29;20053;-77
2024/04/19 12:16:56;;;;;;;0.55;0.30;;;9.70;89.40;;;;;;4842588;29;20041;-76
2024/04/19 12:19:22;;;;;;;0.30;0.30;;;9.80;88.90;;;;;;4795150;29;20038;-75
2024/04/19 12:21:50;;;;;;;0.90;0.40;;;10.00;88.70;;;;;;4832297;29;20040;-76
2024/04/19 12:24:16;;;;;;;0.40;0.30;;;10.10;88.30;;;;;;4847711;29;20044;-76
2024/04/19 12:26:42;;;;;;;0.25;0.25;;;10.20;88.00;;;;;;4826947;29;20065;-78
2024/04/19 12:29:08;;;;;;;0.57;0.40;;;10.20;87.90;;;;;;4845441;29;20046;-78
2024/04/19 12:31:35;;;;;;;0.45;0.30;;;10.10;87.90;;;;;;4828342;29;20061;-76
2024/04/19 12:34:01;;;;;;;0.75;0.50;;;10.10;88.00;;;;;;4829081;29;20049;-77
2024/04/19 12:36:48;;;;;;;0.57;0.30;;;10.00;87.90;;;;;;4813918;29;20524;-77
2024/04/19 12:39:14;;;;;;;0.30;0.30;;;9.90;88.10;;;;;;4807095;29;20155;-77
2024/04/19 12:41:40;;;;;;;0.25;0.25;;;9.70;88.50;;;;;;4791976;29;20207;-75
2024/04/19 12:44:06;;;;;;;0.30;0.30;;;9.30;88.90;;;;;;4803056;29;20043;-77
2024/04/19 12:46:34;;;;;;;0.47;0.30;;;9.30;89.50;;;;;;4777289;29;20061;-76
2024/04/19 12:49:04;;;;;;;0.35;0.25;;;9.20;89.70;;;;;;4789148;29;20553;-76
2024/04/19 12:51:31;;;;;;;0.38;0.30;;;9.30;90.00;;;;;;4760013;29;20151;-76
2024/04/19 12:53:57;;;;;;;0.57;0.22;;;9.50;89.80;;;;;;4759304;29;20047;-76
2024/04/19 12:56:23;;;;;;;0.52;0.32;;;9.60;89.50;;;;;;4804744;29;20506;-75